sensor_id;sensor_type;location;lat;lon;timestamp;temperature;humidity
34646;DHT22;20857;47.808;12.482;2023-07-02T00:01:19;15.70;99.90
34646;DHT22;20857;47.808;12.482;2023-07-02T00:03:44;15.70;99.90
34646;DHT22;20857;47.808;12.482;2023-07-02T00:06:10;15.70;99.90
34646;DHT22;20857;47.808;12.482;2023-07-02T00:08:36;15.60;99.90
34646;DHT22;20857;47.808;12.482;2023-07-02T00:11:01;15.70;99.90
34646;DHT22;20857;47.808;12.482;2023-07-02T00:13:27;15.70;99.90
34646;DHT22;20857;47.808;12.482;2023-07-02T00:15:52;15.70;99.90
34646;DHT22;20857;47.808;12.482;2023-07-02T00:18:18;15.70;99.90
34646;DHT22;20857;47.808;12.482;2023-07-02T00:20:43;15.80;99.90
34646;DHT22;20857;47.808;12.482;2023-07-02T00:23:09;15.80;99.90
34646;DHT22;20857;47.808;12.482;2023-07-02T00:25:36;15.90;99.90
34646;DHT22;20857;47.808;12.482;2023-07-02T00:28:01;15.90;99.90
34646;DHT22;20857;47.808;12.482;2023-07-02T00:30:27;15.90;99.90
34646;DHT22;20857;47.808;12.482;2023-07-02T00:32:53;15.90;99.90
34646;DHT22;20857;47.808;12.482;2023-07-02T00:35:18;15.90;99.90
34646;DHT22;20857;47.808;12.482;2023-07-02T00:37:44;15.90;99.90
34646;DHT22;20857;47.808;12.482;2023-07-02T00:40:10;15.80;99.90
34646;DHT22;20857;47.808;12.482;2023-07-02T00:42:35;15.90;99.90
34646;DHT22;20857;47.808;12.482;2023-07-02T00:45:01;15.90;99.90
34646;DHT22;20857;47.808;12.482;2023-07-02T00:47:32;15.90;99.90
34646;DHT22;20857;47.808;12.482;2023-07-02T00:49:58;15.90;99.90
34646;DHT22;20857;47.808;12.482;2023-07-02T00:52:25;16.00;99.90
34646;DHT22;20857;47.808;12.482;2023-07-02T00:54:51;16.00;99.90
34646;DHT22;20857;47.808;12.482;2023-07-02T00:57:17;15.90;99.90
34646;DHT22;20857;47.808;12.482;2023-07-02T00:59:43;15.90;99.90
34646;DHT22;20857;47.808;12.482;2023-07-02T01:02:08;15.90;99.90
34646;DHT22;20857;47.808;12.482;2023-07-02T01:04:34;15.90;99.90
34646;DHT22;20857;47.808;12.482;2023-07-02T01:07:00;15.90;99.90
34646;DHT22;20857;47.808;12.482;2023-07-02T01:09:26;16.00;99.90
34646;DHT22;20857;47.808;12.482;2023-07-02T01:12:01;16.00;99.90
34646;DHT22;20857;47.808;12.482;2023-07-02T01:14:48;16.00;99.90
34646;DHT22;20857;47.808;12.482;2023-07-02T01:17:15;15.90;99.90
34646;DHT22;20857;47.808;12.482;2023-07-02T01:19:55;16.00;99.90
34646;DHT22;20857;47.808;12.482;2023-07-02T01:22:27;16.00;99.90
34646;DHT22;20857;47.808;12.482;2023-07-02T01:24:54;16.20;99.90
34646;DHT22;20857;47.808;12.482;2023-07-02T01:27:20;16.00;99.90
34646;DHT22;20857;47.808;12.482;2023-07-02T01:29:47;16.00;99.90
34646;DHT22;20857;47.808;12.482;2023-07-02T01:32:16;16.10;99.90
34646;DHT22;20857;47.808;12.482;2023-07-02T01:34:41;16.00;99.90
34646;DHT22;20857;47.808;12.482;2023-07-02T01:37:09;16.00;99.90
34646;DHT22;20857;47.808;12.482;2023-07-02T01:39:35;16.00;99.90
34646;DHT22;20857;47.808;12.482;2023-07-02T01:42:08;16.10;99.90
34646;DHT22;20857;47.808;12.482;2023-07-02T01:44:35;16.00;99.90
34646;DHT22;20857;47.808;12.482;2023-07-02T01:47:01;16.00;99.90
34646;DHT22;20857;47.808;12.482;2023-07-02T01:49:26;16.00;99.90
34646;DHT22;20857;47.808;12.482;2023-07-02T01:51:52;16.00;99.90
34646;DHT22;20857;47.808;12.482;2023-07-02T01:54:19;16.00;99.90
34646;DHT22;20857;47.808;12.482;2023-07-02T01:56:45;16.00;99.90
34646;DHT22;20857;47.808;12.482;2023-07-02T01:59:11;15.90;99.90
34646;DHT22;20857;47.808;12.482;2023-07-02T02:01:37;15.90;99.90
34646;DHT22;20857;47.808;12.482;2023-07-02T02:04:06;15.80;99.90
34646;DHT22;20857;47.808;12.482;2023-07-02T02:06:31;15.70;99.90
34646;DHT22;20857;47.808;12.482;2023-07-02T02:08:57;15.80;99.90
34646;DHT22;20857;47.808;12.482;2023-07-02T02:11:23;15.70;99.90
34646;DHT22;20857;47.808;12.482;2023-07-02T02:13:49;15.70;99.90
34646;DHT22;20857;47.808;12.482;2023-07-02T02:16:14;15.60;99.90
34646;DHT22;20857;47.808;12.482;2023-07-02T02:18:40;15.50;99.90
34646;DHT22;20857;47.808;12.482;2023-07-02T02:21:06;15.50;99.90
34646;DHT22;20857;47.808;12.482;2023-07-02T02:23:32;15.50;99.90
34646;DHT22;20857;47.808;12.482;2023-07-02T02:25:58;15.60;99.90
34646;DHT22;20857;47.808;12.482;2023-07-02T02:28:23;15.70;99.90
34646;DHT22;20857;47.808;12.482;2023-07-02T02:30:49;15.70;99.90
34646;DHT22;20857;47.808;12.482;2023-07-02T02:33:15;15.60;99.90
34646;DHT22;20857;47.808;12.482;2023-07-02T02:35:41;15.60;99.90
34646;DHT22;20857;47.808;12.482;2023-07-02T02:38:06;15.40;99.90
34646;DHT22;20857;47.808;12.482;2023-07-02T02:40:32;15.60;99.90
34646;DHT22;20857;47.808;12.482;2023-07-02T02:42:58;15.60;99.90
34646;DHT22;20857;47.808;12.482;2023-07-02T02:45:23;15.50;99.90
34646;DHT22;20857;47.808;12.482;2023-07-02T02:47:49;15.50;99.90
34646;DHT22;20857;47.808;12.482;2023-07-02T02:50:14;15.50;99.90
34646;DHT22;20857;47.808;12.482;2023-07-02T02:52:40;15.50;99.90
34646;DHT22;20857;47.808;12.482;2023-07-02T02:55:07;15.60;99.90
34646;DHT22;20857;47.808;12.482;2023-07-02T02:57:33;15.60;99.90
34646;DHT22;20857;47.808;12.482;2023-07-02T02:59:59;15.70;99.90
34646;DHT22;20857;47.808;12.482;2023-07-02T03:02:24;15.60;99.90
34646;DHT22;20857;47.808;12.482;2023-07-02T03:04:50;15.60;99.90
34646;DHT22;20857;47.808;12.482;2023-07-02T03:07:16;15.60;99.90
34646;DHT22;20857;47.808;12.482;2023-07-02T03:09:41;15.60;99.90
34646;DHT22;20857;47.808;12.482;2023-07-02T03:12:07;15.50;99.90
34646;DHT22;20857;47.808;12.482;2023-07-02T03:14:33;15.50;99.90
34646;DHT22;20857;47.808;12.482;2023-07-02T03:16:59;15.50;99.90
34646;DHT22;20857;47.808;12.482;2023-07-02T03:19:25;15.50;99.90
34646;DHT22;20857;47.808;12.482;2023-07-02T03:21:50;15.50;99.90
34646;DHT22;20857;47.808;12.482;2023-07-02T03:24:17;15.50;99.90
34646;DHT22;20857;47.808;12.482;2023-07-02T03:26:43;15.50;99.90
34646;DHT22;20857;47.808;12.482;2023-07-02T03:29:09;15.60;99.90
34646;DHT22;20857;47.808;12.482;2023-07-02T03:31:35;15.60;99.90
34646;DHT22;20857;47.808;12.482;2023-07-02T03:34:07;15.60;99.90
34646;DHT22;20857;47.808;12.482;2023-07-02T03:36:33;15.60;99.90
34646;DHT22;20857;47.808;12.482;2023-07-02T03:38:59;15.60;99.90
34646;DHT22;20857;47.808;12.482;2023-07-02T03:41:24;15.60;99.90
34646;DHT22;20857;47.808;12.482;2023-07-02T03:43:50;15.70;99.90
34646;DHT22;20857;47.808;12.482;2023-07-02T03:46:16;15.70;99.90
34646;DHT22;20857;47.808;12.482;2023-07-02T03:48:41;15.60;99.90
34646;DHT22;20857;47.808;12.482;2023-07-02T03:51:07;15.70;99.90
34646;DHT22;20857;47.808;12.482;2023-07-02T03:53:33;15.80;99.90
34646;DHT22;20857;47.808;12.482;2023-07-02T03:55:59;15.70;99.90
34646;DHT22;20857;47.808;12.482;2023-07-02T03:58:25;15.80;99.90
34646;DHT22;20857;47.808;12.482;2023-07-02T04:00:51;15.80;99.90
34646;DHT22;20857;47.808;12.482;2023-07-02T04:03:16;15.80;99.90
34646;DHT22;20857;47.808;12.482;2023-07-02T04:05:43;15.90;99.90
34646;DHT22;20857;47.808;12.482;2023-07-02T04:08:09;15.80;99.90
34646;DHT22;20857;47.808;12.482;2023-07-02T04:10:34;15.80;99.90
34646;DHT22;20857;47.808;12.482;2023-07-02T04:13:00;15.90;99.90
34646;DHT22;20857;47.808;12.482;2023-07-02T04:15:25;15.90;99.90
34646;DHT22;20857;47.808;12.482;2023-07-02T04:17:52;15.90;99.90
34646;DHT22;20857;47.808;12.482;2023-07-02T04:20:18;15.90;99.90
34646;DHT22;20857;47.808;12.482;2023-07-02T04:22:45;15.90;99.90
34646;DHT22;20857;47.808;12.482;2023-07-02T04:25:11;15.90;99.90
34646;DHT22;20857;47.808;12.482;2023-07-02T04:27:41;15.90;99.90
34646;DHT22;20857;47.808;12.482;2023-07-02T04:30:07;16.00;99.90
34646;DHT22;20857;47.808;12.482;2023-07-02T04:32:34;16.00;99.90
34646;DHT22;20857;47.808;12.482;2023-07-02T04:35:00;16.10;99.90
34646;DHT22;20857;47.808;12.482;2023-07-02T04:37:26;16.10;99.90
34646;DHT22;20857;47.808;12.482;2023-07-02T04:39:53;16.10;99.90
34646;DHT22;20857;47.808;12.482;2023-07-02T04:42:18;16.20;99.90
34646;DHT22;20857;47.808;12.482;2023-07-02T04:44:44;16.10;99.90
34646;DHT22;20857;47.808;12.482;2023-07-02T04:47:09;16.10;99.90
34646;DHT22;20857;47.808;12.482;2023-07-02T04:49:35;16.20;99.90
34646;DHT22;20857;47.808;12.482;2023-07-02T04:52:00;16.10;99.90
34646;DHT22;20857;47.808;12.482;2023-07-02T04:54:26;16.00;99.90
34646;DHT22;20857;47.808;12.482;2023-07-02T04:56:52;16.00;99.90
34646;DHT22;20857;47.808;12.482;2023-07-02T04:59:20;16.00;99.90
34646;DHT22;20857;47.808;12.482;2023-07-02T05:01:46;15.90;99.90
34646;DHT22;20857;47.808;12.482;2023-07-02T05:04:12;15.90;99.90
34646;DHT22;20857;47.808;12.482;2023-07-02T05:06:38;15.90;99.90
34646;DHT22;20857;47.808;12.482;2023-07-02T05:09:03;15.90;99.90
34646;DHT22;20857;47.808;12.482;2023-07-02T05:11:29;15.90;99.90
34646;DHT22;20857;47.808;12.482;2023-07-02T05:13:55;15.90;99.90
34646;DHT22;20857;47.808;12.482;2023-07-02T05:16:20;15.90;99.90
34646;DHT22;20857;47.808;12.482;2023-07-02T05:18:46;15.70;99.90
34646;DHT22;20857;47.808;12.482;2023-07-02T05:21:11;15.70;99.90
34646;DHT22;20857;47.808;12.482;2023-07-02T05:23:37;15.50;99.90
34646;DHT22;20857;47.808;12.482;2023-07-02T05:26:03;14.90;99.90
34646;DHT22;20857;47.808;12.482;2023-07-02T05:28:28;14.60;99.90
34646;DHT22;20857;47.808;12.482;2023-07-02T05:30:54;14.40;99.90
34646;DHT22;20857;47.808;12.482;2023-07-02T05:33:20;14.30;99.90
34646;DHT22;20857;47.808;12.482;2023-07-02T05:35:47;14.10;99.90
34646;DHT22;20857;47.808;12.482;2023-07-02T05:38:13;13.90;99.90
34646;DHT22;20857;47.808;12.482;2023-07-02T05:40:39;13.80;99.90
34646;DHT22;20857;47.808;12.482;2023-07-02T05:43:04;13.80;99.90
34646;DHT22;20857;47.808;12.482;2023-07-02T05:45:30;13.80;99.90
34646;DHT22;20857;47.808;12.482;2023-07-02T05:47:55;13.90;99.90
34646;DHT22;20857;47.808;12.482;2023-07-02T05:50:21;14.00;99.90
34646;DHT22;20857;47.808;12.482;2023-07-02T05:52:47;14.10;99.90
34646;DHT22;20857;47.808;12.482;2023-07-02T05:55:12;14.20;99.90
34646;DHT22;20857;47.808;12.482;2023-07-02T05:57:38;14.20;99.90
34646;DHT22;20857;47.808;12.482;2023-07-02T06:00:07;14.20;99.90
34646;DHT22;20857;47.808;12.482;2023-07-02T06:02:33;14.30;99.90
34646;DHT22;20857;47.808;12.482;2023-07-02T06:04:59;14.20;99.90
34646;DHT22;20857;47.808;12.482;2023-07-02T06:07:27;14.30;99.90
34646;DHT22;20857;47.808;12.482;2023-07-02T06:09:52;14.20;99.90
34646;DHT22;20857;47.808;12.482;2023-07-02T06:12:20;14.30;99.90
34646;DHT22;20857;47.808;12.482;2023-07-02T06:14:46;14.30;99.90
34646;DHT22;20857;47.808;12.482;2023-07-02T06:17:11;14.30;99.90
34646;DHT22;20857;47.808;12.482;2023-07-02T06:19:37;14.40;99.90
34646;DHT22;20857;47.808;12.482;2023-07-02T06:22:04;14.40;99.90
34646;DHT22;20857;47.808;12.482;2023-07-02T06:24:29;14.40;99.90
34646;DHT22;20857;47.808;12.482;2023-07-02T06:26:55;14.50;99.90
34646;DHT22;20857;47.808;12.482;2023-07-02T06:29:24;14.60;99.90
34646;DHT22;20857;47.808;12.482;2023-07-02T06:31:50;14.70;99.90
34646;DHT22;20857;47.808;12.482;2023-07-02T06:34:16;14.60;99.90
34646;DHT22;20857;47.808;12.482;2023-07-02T06:36:42;14.60;99.90
34646;DHT22;20857;47.808;12.482;2023-07-02T06:39:08;14.50;99.90
34646;DHT22;20857;47.808;12.482;2023-07-02T06:41:37;14.40;99.90
34646;DHT22;20857;47.808;12.482;2023-07-02T06:44:02;14.40;99.90
34646;DHT22;20857;47.808;12.482;2023-07-02T06:46:29;14.40;99.90
34646;DHT22;20857;47.808;12.482;2023-07-02T06:48:55;14.40;99.90
34646;DHT22;20857;47.808;12.482;2023-07-02T06:51:21;14.70;99.90
34646;DHT22;20857;47.808;12.482;2023-07-02T06:53:47;15.00;99.90
34646;DHT22;20857;47.808;12.482;2023-07-02T06:56:13;14.90;99.90
34646;DHT22;20857;47.808;12.482;2023-07-02T06:58:45;14.90;99.90
34646;DHT22;20857;47.808;12.482;2023-07-02T07:01:10;14.80;99.90
34646;DHT22;20857;47.808;12.482;2023-07-02T07:03:36;14.60;99.90
34646;DHT22;20857;47.808;12.482;2023-07-02T07:06:02;14.70;99.90
34646;DHT22;20857;47.808;12.482;2023-07-02T07:08:28;14.80;99.90
34646;DHT22;20857;47.808;12.482;2023-07-02T07:10:53;14.90;99.90
34646;DHT22;20857;47.808;12.482;2023-07-02T07:13:19;14.90;99.90
34646;DHT22;20857;47.808;12.482;2023-07-02T07:15:45;15.00;99.90
34646;DHT22;20857;47.808;12.482;2023-07-02T07:18:11;15.20;99.90
34646;DHT22;20857;47.808;12.482;2023-07-02T07:20:38;15.40;99.90
34646;DHT22;20857;47.808;12.482;2023-07-02T07:23:03;15.60;99.90
34646;DHT22;20857;47.808;12.482;2023-07-02T07:25:29;15.70;99.90
34646;DHT22;20857;47.808;12.482;2023-07-02T07:27:55;15.70;99.90
34646;DHT22;20857;47.808;12.482;2023-07-02T07:30:21;15.60;99.90
34646;DHT22;20857;47.808;12.482;2023-07-02T07:32:52;15.60;99.90
34646;DHT22;20857;47.808;12.482;2023-07-02T07:35:20;15.70;99.90
34646;DHT22;20857;47.808;12.482;2023-07-02T07:37:46;15.80;99.90
34646;DHT22;20857;47.808;12.482;2023-07-02T07:40:12;15.80;99.90
34646;DHT22;20857;47.808;12.482;2023-07-02T07:42:38;15.90;99.90
34646;DHT22;20857;47.808;12.482;2023-07-02T07:45:04;16.10;99.90
34646;DHT22;20857;47.808;12.482;2023-07-02T07:47:33;16.40;99.90
34646;DHT22;20857;47.808;12.482;2023-07-02T07:49:58;16.70;99.90
34646;DHT22;20857;47.808;12.482;2023-07-02T07:52:24;17.00;99.90
34646;DHT22;20857;47.808;12.482;2023-07-02T07:54:49;17.40;99.90
34646;DHT22;20857;47.808;12.482;2023-07-02T07:57:15;17.60;99.90
34646;DHT22;20857;47.808;12.482;2023-07-02T07:59:41;17.80;99.90
34646;DHT22;20857;47.808;12.482;2023-07-02T08:02:06;17.90;99.90
34646;DHT22;20857;47.808;12.482;2023-07-02T08:04:32;17.90;99.90
34646;DHT22;20857;47.808;12.482;2023-07-02T08:06:57;18.20;99.90
34646;DHT22;20857;47.808;12.482;2023-07-02T08:09:24;18.10;99.90
34646;DHT22;20857;47.808;12.482;2023-07-02T08:11:50;18.10;99.90
34646;DHT22;20857;47.808;12.482;2023-07-02T08:14:16;18.20;99.90
34646;DHT22;20857;47.808;12.482;2023-07-02T08:16:44;18.30;99.90
34646;DHT22;20857;47.808;12.482;2023-07-02T08:19:10;18.40;99.90
34646;DHT22;20857;47.808;12.482;2023-07-02T08:21:35;18.60;99.90
34646;DHT22;20857;47.808;12.482;2023-07-02T08:24:02;18.70;99.90
34646;DHT22;20857;47.808;12.482;2023-07-02T08:26:27;18.80;99.90
34646;DHT22;20857;47.808;12.482;2023-07-02T08:28:54;19.20;99.90
34646;DHT22;20857;47.808;12.482;2023-07-02T08:31:19;19.40;99.90
34646;DHT22;20857;47.808;12.482;2023-07-02T08:33:45;19.50;99.90
34646;DHT22;20857;47.808;12.482;2023-07-02T08:36:10;19.70;99.90
34646;DHT22;20857;47.808;12.482;2023-07-02T08:38:36;19.70;99.90
34646;DHT22;20857;47.808;12.482;2023-07-02T08:41:04;20.00;99.90
34646;DHT22;20857;47.808;12.482;2023-07-02T08:43:30;20.00;99.90
34646;DHT22;20857;47.808;12.482;2023-07-02T08:45:56;20.00;99.90
34646;DHT22;20857;47.808;12.482;2023-07-02T08:48:22;19.90;99.90
34646;DHT22;20857;47.808;12.482;2023-07-02T08:50:50;20.00;99.90
34646;DHT22;20857;47.808;12.482;2023-07-02T08:53:15;20.00;99.90
34646;DHT22;20857;47.808;12.482;2023-07-02T08:55:41;20.20;99.90
34646;DHT22;20857;47.808;12.482;2023-07-02T08:58:07;20.30;99.90
34646;DHT22;20857;47.808;12.482;2023-07-02T09:00:32;20.60;99.90
34646;DHT22;20857;47.808;12.482;2023-07-02T09:03:15;20.70;99.90
34646;DHT22;20857;47.808;12.482;2023-07-02T09:05:51;20.60;99.90
34646;DHT22;20857;47.808;12.482;2023-07-02T09:08:27;20.60;99.90
34646;DHT22;20857;47.808;12.482;2023-07-02T09:10:54;20.60;99.90
34646;DHT22;20857;47.808;12.482;2023-07-02T09:13:19;20.20;99.90
34646;DHT22;20857;47.808;12.482;2023-07-02T09:15:45;19.80;99.90
34646;DHT22;20857;47.808;12.482;2023-07-02T09:18:22;19.60;99.90
34646;DHT22;20857;47.808;12.482;2023-07-02T09:20:55;19.00;99.90
34646;DHT22;20857;47.808;12.482;2023-07-02T09:23:21;17.00;99.90
34646;DHT22;20857;47.808;12.482;2023-07-02T09:25:47;15.80;99.90
34646;DHT22;20857;47.808;12.482;2023-07-02T09:28:21;15.00;99.90
34646;DHT22;20857;47.808;12.482;2023-07-02T09:30:56;14.60;99.90
34646;DHT22;20857;47.808;12.482;2023-07-02T09:33:29;14.50;99.90
34646;DHT22;20857;47.808;12.482;2023-07-02T09:35:55;14.40;99.90
34646;DHT22;20857;47.808;12.482;2023-07-02T09:38:21;14.40;99.90
34646;DHT22;20857;47.808;12.482;2023-07-02T09:40:50;14.30;99.90
34646;DHT22;20857;47.808;12.482;2023-07-02T09:43:17;14.40;99.90
34646;DHT22;20857;47.808;12.482;2023-07-02T09:45:50;14.40;99.90
34646;DHT22;20857;47.808;12.482;2023-07-02T09:48:17;14.50;99.90
34646;DHT22;20857;47.808;12.482;2023-07-02T09:50:45;14.50;99.90
34646;DHT22;20857;47.808;12.482;2023-07-02T09:53:11;14.60;99.90
34646;DHT22;20857;47.808;12.482;2023-07-02T09:55:39;14.80;99.90
34646;DHT22;20857;47.808;12.482;2023-07-02T09:58:05;15.00;99.90
34646;DHT22;20857;47.808;12.482;2023-07-02T10:00:31;15.10;99.90
34646;DHT22;20857;47.808;12.482;2023-07-02T10:02:56;15.20;99.90
34646;DHT22;20857;47.808;12.482;2023-07-02T10:05:40;15.50;99.90
34646;DHT22;20857;47.808;12.482;2023-07-02T10:08:14;15.50;99.90
34646;DHT22;20857;47.808;12.482;2023-07-02T10:10:42;15.40;99.90
34646;DHT22;20857;47.808;12.482;2023-07-02T10:13:07;15.50;99.90
34646;DHT22;20857;47.808;12.482;2023-07-02T10:15:33;15.40;99.90
34646;DHT22;20857;47.808;12.482;2023-07-02T10:18:03;15.40;99.90
34646;DHT22;20857;47.808;12.482;2023-07-02T10:20:40;15.40;99.90
34646;DHT22;20857;47.808;12.482;2023-07-02T10:23:08;15.50;99.90
34646;DHT22;20857;47.808;12.482;2023-07-02T10:25:35;15.60;99.90
34646;DHT22;20857;47.808;12.482;2023-07-02T10:28:14;15.80;99.90
34646;DHT22;20857;47.808;12.482;2023-07-02T10:30:40;15.80;99.90
34646;DHT22;20857;47.808;12.482;2023-07-02T10:35:34;16.40;99.90
34646;DHT22;20857;47.808;12.482;2023-07-02T10:38:00;16.70;99.90
34646;DHT22;20857;47.808;12.482;2023-07-02T10:40:26;17.00;99.90
34646;DHT22;20857;47.808;12.482;2023-07-02T10:42:52;17.30;99.90
34646;DHT22;20857;47.808;12.482;2023-07-02T10:45:19;17.50;99.90
34646;DHT22;20857;47.808;12.482;2023-07-02T10:47:45;17.70;99.90
34646;DHT22;20857;47.808;12.482;2023-07-02T10:50:21;18.00;99.90
34646;DHT22;20857;47.808;12.482;2023-07-02T10:52:47;18.40;99.90
34646;DHT22;20857;47.808;12.482;2023-07-02T10:55:21;18.70;99.90
34646;DHT22;20857;47.808;12.482;2023-07-02T10:57:48;18.70;99.90
34646;DHT22;20857;47.808;12.482;2023-07-02T11:00:19;18.90;99.90
34646;DHT22;20857;47.808;12.482;2023-07-02T11:02:45;19.20;99.90
34646;DHT22;20857;47.808;12.482;2023-07-02T11:05:10;19.10;99.90
34646;DHT22;20857;47.808;12.482;2023-07-02T11:07:40;19.40;99.90
34646;DHT22;20857;47.808;12.482;2023-07-02T11:10:07;19.20;99.90
34646;DHT22;20857;47.808;12.482;2023-07-02T11:12:33;18.70;99.90
34646;DHT22;20857;47.808;12.482;2023-07-02T11:15:14;18.50;99.90
34646;DHT22;20857;47.808;12.482;2023-07-02T11:17:40;18.70;99.90
34646;DHT22;20857;47.808;12.482;2023-07-02T11:20:10;18.80;99.90
34646;DHT22;20857;47.808;12.482;2023-07-02T11:22:36;19.30;99.90
34646;DHT22;20857;47.808;12.482;2023-07-02T11:27:35;19.60;99.90
34646;DHT22;20857;47.808;12.482;2023-07-02T11:30:01;19.50;99.90
34646;DHT22;20857;47.808;12.482;2023-07-02T11:32:26;19.30;99.90
34646;DHT22;20857;47.808;12.482;2023-07-02T11:34:55;19.10;99.90
34646;DHT22;20857;47.808;12.482;2023-07-02T11:37:21;19.00;99.90
34646;DHT22;20857;47.808;12.482;2023-07-02T11:39:46;19.10;99.90
34646;DHT22;20857;47.808;12.482;2023-07-02T11:42:12;19.40;99.90
34646;DHT22;20857;47.808;12.482;2023-07-02T11:44:38;19.50;99.90
34646;DHT22;20857;47.808;12.482;2023-07-02T11:47:04;19.20;99.90
34646;DHT22;20857;47.808;12.482;2023-07-02T11:49:30;19.00;99.90
34646;DHT22;20857;47.808;12.482;2023-07-02T11:51:55;19.20;99.90
34646;DHT22;20857;47.808;12.482;2023-07-02T11:54:21;19.70;99.90
34646;DHT22;20857;47.808;12.482;2023-07-02T11:56:48;19.70;99.90
34646;DHT22;20857;47.808;12.482;2023-07-02T11:59:13;20.00;99.90
34646;DHT22;20857;47.808;12.482;2023-07-02T12:01:39;20.50;99.90
34646;DHT22;20857;47.808;12.482;2023-07-02T12:04:05;20.80;99.90
34646;DHT22;20857;47.808;12.482;2023-07-02T12:06:33;21.10;99.90
34646;DHT22;20857;47.808;12.482;2023-07-02T12:08:58;21.50;99.90
34646;DHT22;20857;47.808;12.482;2023-07-02T12:11:24;21.90;99.90
34646;DHT22;20857;47.808;12.482;2023-07-02T12:13:50;22.80;99.90
34646;DHT22;20857;47.808;12.482;2023-07-02T12:16:15;23.60;99.90
34646;DHT22;20857;47.808;12.482;2023-07-02T12:18:41;23.30;99.90
34646;DHT22;20857;47.808;12.482;2023-07-02T12:21:07;22.60;99.90
34646;DHT22;20857;47.808;12.482;2023-07-02T12:23:32;21.90;99.90
34646;DHT22;20857;47.808;12.482;2023-07-02T12:25:58;22.10;99.90
34646;DHT22;20857;47.808;12.482;2023-07-02T12:28:23;22.00;99.90
34646;DHT22;20857;47.808;12.482;2023-07-02T12:30:49;22.20;99.90
34646;DHT22;20857;47.808;12.482;2023-07-02T12:33:15;22.00;99.90
34646;DHT22;20857;47.808;12.482;2023-07-02T12:35:40;21.90;99.90
34646;DHT22;20857;47.808;12.482;2023-07-02T12:38:06;22.00;99.90
34646;DHT22;20857;47.808;12.482;2023-07-02T12:40:33;22.70;99.90
34646;DHT22;20857;47.808;12.482;2023-07-02T12:42:59;24.10;99.90
34646;DHT22;20857;47.808;12.482;2023-07-02T12:45:24;25.60;99.90
34646;DHT22;20857;47.808;12.482;2023-07-02T12:47:50;26.10;99.90
34646;DHT22;20857;47.808;12.482;2023-07-02T12:50:16;26.30;99.90
34646;DHT22;20857;47.808;12.482;2023-07-02T12:52:41;25.70;99.90
34646;DHT22;20857;47.808;12.482;2023-07-02T12:55:07;26.20;99.90
34646;DHT22;20857;47.808;12.482;2023-07-02T12:57:34;26.00;98.40
34646;DHT22;20857;47.808;12.482;2023-07-02T13:00:00;26.30;99.40
34646;DHT22;20857;47.808;12.482;2023-07-02T13:02:26;26.40;99.90
34646;DHT22;20857;47.808;12.482;2023-07-02T13:04:51;26.20;99.70
34646;DHT22;20857;47.808;12.482;2023-07-02T13:07:17;24.90;98.70
34646;DHT22;20857;47.808;12.482;2023-07-02T13:09:43;25.60;99.40
34646;DHT22;20857;47.808;12.482;2023-07-02T13:12:10;25.90;99.90
34646;DHT22;20857;47.808;12.482;2023-07-02T13:14:36;26.10;98.00
34646;DHT22;20857;47.808;12.482;2023-07-02T13:17:02;25.80;99.90
34646;DHT22;20857;47.808;12.482;2023-07-02T13:19:30;25.00;99.90
34646;DHT22;20857;47.808;12.482;2023-07-02T13:21:56;24.00;99.90
34646;DHT22;20857;47.808;12.482;2023-07-02T13:24:22;24.40;99.90
34646;DHT22;20857;47.808;12.482;2023-07-02T13:26:47;24.50;99.50
34646;DHT22;20857;47.808;12.482;2023-07-02T13:29:14;24.10;99.90
34646;DHT22;20857;47.808;12.482;2023-07-02T13:31:39;23.40;99.90
34646;DHT22;20857;47.808;12.482;2023-07-02T13:34:05;23.20;99.90
34646;DHT22;20857;47.808;12.482;2023-07-02T13:36:30;23.30;99.90
34646;DHT22;20857;47.808;12.482;2023-07-02T13:38:56;23.00;99.90
34646;DHT22;20857;47.808;12.482;2023-07-02T13:41:21;23.20;99.90
34646;DHT22;20857;47.808;12.482;2023-07-02T13:43:47;23.40;99.90
34646;DHT22;20857;47.808;12.482;2023-07-02T13:46:13;24.80;99.90
34646;DHT22;20857;47.808;12.482;2023-07-02T13:48:39;25.40;99.00
34646;DHT22;20857;47.808;12.482;2023-07-02T13:51:04;25.30;99.00
34646;DHT22;20857;47.808;12.482;2023-07-02T13:53:30;25.00;99.90
34646;DHT22;20857;47.808;12.482;2023-07-02T13:55:56;24.80;99.90
34646;DHT22;20857;47.808;12.482;2023-07-02T13:58:22;24.60;99.50
34646;DHT22;20857;47.808;12.482;2023-07-02T14:00:48;24.50;99.90
34646;DHT22;20857;47.808;12.482;2023-07-02T14:03:13;24.60;99.20
34646;DHT22;20857;47.808;12.482;2023-07-02T14:05:40;25.00;99.90
34646;DHT22;20857;47.808;12.482;2023-07-02T14:08:05;25.00;99.90
34646;DHT22;20857;47.808;12.482;2023-07-02T14:10:31;24.90;99.20
34646;DHT22;20857;47.808;12.482;2023-07-02T14:12:57;24.20;99.90
34646;DHT22;20857;47.808;12.482;2023-07-02T14:15:24;24.60;99.90
34646;DHT22;20857;47.808;12.482;2023-07-02T14:17:50;24.60;99.40
34646;DHT22;20857;47.808;12.482;2023-07-02T14:20:16;25.10;99.90
34646;DHT22;20857;47.808;12.482;2023-07-02T14:22:41;24.80;99.00
34646;DHT22;20857;47.808;12.482;2023-07-02T14:25:07;25.10;99.70
34646;DHT22;20857;47.808;12.482;2023-07-02T14:27:33;25.50;99.80
34646;DHT22;20857;47.808;12.482;2023-07-02T14:29:59;25.40;99.00
34646;DHT22;20857;47.808;12.482;2023-07-02T14:32:26;26.50;98.10
34646;DHT22;20857;47.808;12.482;2023-07-02T14:34:51;27.90;97.00
34646;DHT22;20857;47.808;12.482;2023-07-02T14:37:17;29.10;97.80
34646;DHT22;20857;47.808;12.482;2023-07-02T14:39:43;28.60;94.40
34646;DHT22;20857;47.808;12.482;2023-07-02T14:42:08;27.80;95.70
34646;DHT22;20857;47.808;12.482;2023-07-02T14:44:34;26.80;96.90
34646;DHT22;20857;47.808;12.482;2023-07-02T14:46:59;26.20;96.60
34646;DHT22;20857;47.808;12.482;2023-07-02T14:49:25;27.30;98.30
34646;DHT22;20857;47.808;12.482;2023-07-02T14:51:51;28.30;95.40
34646;DHT22;20857;47.808;12.482;2023-07-02T14:54:17;29.00;93.70
34646;DHT22;20857;47.808;12.482;2023-07-02T14:56:42;28.40;94.40
34646;DHT22;20857;47.808;12.482;2023-07-02T14:59:08;28.90;95.10
34646;DHT22;20857;47.808;12.482;2023-07-02T15:01:34;30.10;95.10
34646;DHT22;20857;47.808;12.482;2023-07-02T15:04:00;31.20;91.80
34646;DHT22;20857;47.808;12.482;2023-07-02T15:06:25;31.10;92.10
34646;DHT22;20857;47.808;12.482;2023-07-02T15:08:51;32.20;92.50
34646;DHT22;20857;47.808;12.482;2023-07-02T15:11:17;33.20;90.90
34646;DHT22;20857;47.808;12.482;2023-07-02T15:13:43;32.80;90.00
34646;DHT22;20857;47.808;12.482;2023-07-02T15:16:10;32.60;90.90